createdAt,value
2022-10-18T00:02:03.528Z,15.00
2022-10-18T00:04:50.369Z,15.00
2022-10-18T00:07:36.831Z,15.00
2022-10-18T00:10:24.540Z,15.00
2022-10-18T00:13:11.134Z,15.00
2022-10-18T00:16:00.967Z,15.10
2022-10-18T00:18:48.860Z,15.10
2022-10-18T00:21:35.700Z,15.20
2022-10-18T00:24:22.485Z,15.30
2022-10-18T00:27:08.817Z,15.30
2022-10-18T00:29:55.047Z,15.50
2022-10-18T00:32:43.621Z,15.60
2022-10-18T00:35:29.965Z,15.70
2022-10-18T00:38:16.477Z,15.70
2022-10-18T00:41:02.890Z,15.80
2022-10-18T00:43:58.757Z,15.80
2022-10-18T00:46:47.594Z,15.80
2022-10-18T00:49:39.213Z,15.90
2022-10-18T00:52:30.321Z,15.90
2022-10-18T00:55:17.081Z,15.90
2022-10-18T00:58:04.994Z,15.80
2022-10-18T01:00:51.580Z,15.80
2022-10-18T01:03:38.668Z,15.90
2022-10-18T01:06:28.578Z,15.90
2022-10-18T01:09:23.603Z,15.90
2022-10-18T01:12:22.994Z,15.90
2022-10-18T01:15:16.679Z,15.80
2022-10-18T01:18:10.768Z,15.70
2022-10-18T01:21:17.383Z,15.60
2022-10-18T01:24:39.945Z,15.70
2022-10-18T01:27:54.145Z,15.80
2022-10-18T01:30:56.018Z,15.90
2022-10-18T01:33:49.266Z,15.90
2022-10-18T01:36:38.848Z,15.90
2022-10-18T01:39:28.829Z,15.90
2022-10-18T01:42:19.969Z,15.90
2022-10-18T01:45:09.519Z,15.80
2022-10-18T01:47:58.109Z,15.80
2022-10-18T01:50:44.488Z,15.70
2022-10-18T01:53:33.098Z,15.70
2022-10-18T01:56:32.353Z,15.70
2022-10-18T01:59:45.541Z,15.80
2022-10-18T02:02:43.127Z,15.80
2022-10-18T02:05:40.162Z,16.00
2022-10-18T02:08:31.268Z,16.00
2022-10-18T02:11:19.201Z,16.10
2022-10-18T02:14:10.388Z,16.20
2022-10-18T02:16:59.765Z,16.30
2022-10-18T02:19:49.301Z,16.30
2022-10-18T02:22:39.396Z,16.30
2022-10-18T02:25:29.716Z,16.30
2022-10-18T02:28:16.032Z,16.30
2022-10-18T02:31:10.843Z,16.30
2022-10-18T02:33:59.825Z,16.40
2022-10-18T02:36:51.353Z,16.40
2022-10-18T02:39:44.268Z,16.40
2022-10-18T02:42:36.517Z,16.40
2022-10-18T02:45:23.239Z,16.40
2022-10-18T02:48:10.847Z,16.40
2022-10-18T02:50:57.419Z,16.30
2022-10-18T02:53:43.804Z,16.30
2022-10-18T02:56:31.678Z,16.30
2022-10-18T02:59:18.278Z,16.30
2022-10-18T03:02:04.810Z,16.20
2022-10-18T03:04:51.040Z,16.20
2022-10-18T03:07:37.656Z,16.20
2022-10-18T03:10:23.912Z,16.20
2022-10-18T03:13:11.796Z,16.10
2022-10-18T03:15:58.489Z,16.10
2022-10-18T03:18:45.359Z,16.00
2022-10-18T03:21:32.064Z,16.10
2022-10-18T03:24:18.642Z,16.00
2022-10-18T03:27:05.210Z,16.00
2022-10-18T03:29:52.794Z,15.90
2022-10-18T03:32:39.328Z,15.90
2022-10-18T03:35:25.920Z,15.80
2022-10-18T03:38:12.251Z,15.70
2022-10-18T03:40:58.569Z,15.50
2022-10-18T03:43:44.745Z,15.40
2022-10-18T03:46:32.651Z,15.50
2022-10-18T03:49:19.078Z,15.50
2022-10-18T03:52:05.374Z,15.50
2022-10-18T03:54:51.696Z,15.40
2022-10-18T03:57:38.009Z,15.30
2022-10-18T04:00:24.677Z,15.40
2022-10-18T04:03:12.312Z,15.40
2022-10-18T04:06:00.560Z,15.20
2022-10-18T04:08:46.913Z,14.90
2022-10-18T04:11:33.462Z,14.90
2022-10-18T04:14:21.260Z,14.80
2022-10-18T04:17:07.778Z,14.50
2022-10-18T04:19:55.541Z,14.50
2022-10-18T04:22:42.192Z,14.30
2022-10-18T04:25:29.250Z,14.30
2022-10-18T04:28:15.487Z,14.40
2022-10-18T04:31:02.083Z,14.60
2022-10-18T04:33:48.344Z,14.70
2022-10-18T04:36:36.050Z,14.70
2022-10-18T04:39:22.562Z,14.80
2022-10-18T04:42:08.910Z,14.90
2022-10-18T04:44:55.292Z,15.00
2022-10-18T04:47:41.782Z,15.00
2022-10-18T04:50:28.286Z,14.90
2022-10-18T04:53:18.804Z,14.90
2022-10-18T04:56:05.932Z,14.80
2022-10-18T04:58:52.342Z,14.80
2022-10-18T05:01:38.789Z,14.90
2022-10-18T05:04:25.512Z,15.00
2022-10-18T05:07:12.057Z,15.00
2022-10-18T05:09:59.989Z,15.00
2022-10-18T05:12:46.606Z,14.90
2022-10-18T05:15:32.909Z,14.80
2022-10-18T05:18:19.188Z,14.60
2022-10-18T05:21:05.730Z,14.40
2022-10-18T05:23:55.703Z,14.40
2022-10-18T05:26:43.706Z,14.40
2022-10-18T05:29:30.260Z,14.60
2022-10-18T05:32:16.783Z,14.70
2022-10-18T05:35:03.363Z,14.80
2022-10-18T05:37:49.724Z,14.90
2022-10-18T05:40:39.845Z,15.00
2022-10-18T05:43:30.214Z,14.90
2022-10-18T05:46:16.597Z,15.00
2022-10-18T05:49:03.076Z,15.10
2022-10-18T05:51:50.562Z,15.10
2022-10-18T05:54:37.176Z,15.10
2022-10-18T05:57:23.412Z,15.00
2022-10-18T06:00:13.183Z,15.00
2022-10-18T06:03:00.545Z,15.10
2022-10-18T06:05:47.223Z,15.10
2022-10-18T06:08:33.924Z,15.00
2022-10-18T06:11:21.675Z,14.90
2022-10-18T06:14:09.119Z,14.90
2022-10-18T06:16:57.420Z,14.90
2022-10-18T06:19:44.414Z,15.00
2022-10-18T06:22:31.356Z,15.10
2022-10-18T06:25:17.910Z,15.10
2022-10-18T06:28:07.842Z,15.10
2022-10-18T06:30:57.575Z,15.30
2022-10-18T06:33:46.549Z,15.30
2022-10-18T06:36:33.234Z,15.40
2022-10-18T06:39:19.539Z,15.50
2022-10-18T06:42:05.931Z,15.50
2022-10-18T06:44:53.837Z,15.60
2022-10-18T06:47:40.419Z,15.50
2022-10-18T06:50:28.202Z,15.60
2022-10-18T06:53:15.133Z,15.30
2022-10-18T06:56:02.681Z,15.30
2022-10-18T06:58:49.363Z,15.20
2022-10-18T07:01:36.351Z,15.30
2022-10-18T07:04:23.166Z,15.30
2022-10-18T07:07:10.890Z,15.40
2022-10-18T07:09:57.442Z,15.60
2022-10-18T07:12:43.870Z,15.80
2022-10-18T07:15:30.316Z,15.90
2022-10-18T07:18:17.138Z,16.00
2022-10-18T07:21:04.289Z,16.10
2022-10-18T07:23:52.887Z,16.00
2022-10-18T07:26:39.358Z,15.90
2022-10-18T07:29:25.958Z,15.60
2022-10-18T07:32:12.475Z,15.40
2022-10-18T07:34:59.373Z,15.30
2022-10-18T07:37:45.815Z,15.30
2022-10-18T07:40:33.730Z,15.40
2022-10-18T07:43:20.290Z,15.60
2022-10-18T07:46:07.003Z,15.80
2022-10-18T07:48:53.528Z,15.90
2022-10-18T07:51:39.799Z,15.90
2022-10-18T07:54:26.250Z,16.00
2022-10-18T07:57:13.945Z,16.10
2022-10-18T08:00:00.375Z,16.20
2022-10-18T08:02:46.871Z,16.20
2022-10-18T08:08:25.730Z,16.40
2022-10-18T08:11:15.728Z,16.60
2022-10-18T08:14:03.719Z,16.60
2022-10-18T08:16:50.239Z,16.70
2022-10-18T08:19:36.609Z,16.80
2022-10-18T08:22:23.093Z,16.80
2022-10-18T08:25:09.941Z,16.80
2022-10-18T08:27:56.642Z,16.90
2022-10-18T08:30:44.610Z,17.10
2022-10-18T08:33:31.393Z,17.50
2022-10-18T08:36:19.881Z,17.80
2022-10-18T08:39:06.170Z,18.00
2022-10-18T08:42:14.908Z,18.30
2022-10-18T08:45:08.277Z,18.90
2022-10-18T08:48:07.307Z,19.80
2022-10-18T08:50:57.204Z,21.10
2022-10-18T08:53:52.428Z,22.30
2022-10-18T08:56:41.739Z,22.80
2022-10-18T08:59:34.053Z,22.80
2022-10-18T09:02:34.505Z,22.70
2022-10-18T09:05:30.400Z,22.60
2022-10-18T09:08:36.752Z,22.40
2022-10-18T09:11:35.966Z,22.30
2022-10-18T09:14:53.265Z,22.40
2022-10-18T09:17:59.101Z,22.90
2022-10-18T09:20:53.256Z,22.70
2022-10-18T09:23:47.542Z,22.30
2022-10-18T09:26:42.320Z,21.70
2022-10-18T09:29:47.214Z,21.40
2022-10-18T09:32:45.731Z,20.90
2022-10-18T09:35:48.770Z,20.70
2022-10-18T09:38:44.210Z,20.50
2022-10-18T09:41:35.634Z,20.40
2022-10-18T09:44:25.087Z,20.30
2022-10-18T09:47:16.917Z,20.20
2022-10-18T09:50:16.288Z,20.10
2022-10-18T09:53:12.543Z,20.00
2022-10-18T09:56:04.427Z,20.00
2022-10-18T09:58:51.965Z,19.90
2022-10-18T10:01:38.599Z,19.80
2022-10-18T10:04:25.119Z,19.80
2022-10-18T10:07:15.348Z,19.90
2022-10-18T10:10:09.238Z,20.00
2022-10-18T10:13:06.801Z,20.20
2022-10-18T10:15:55.711Z,20.10
2022-10-18T10:18:43.421Z,20.10
2022-10-18T10:21:30.154Z,20.40
2022-10-18T10:24:34.585Z,20.70
2022-10-18T10:27:21.841Z,21.00
2022-10-18T10:30:24.832Z,21.50
2022-10-18T10:33:32.729Z,22.10
2022-10-18T10:36:21.337Z,22.40
2022-10-18T10:39:11.889Z,22.70
2022-10-18T10:42:01.120Z,22.60
2022-10-18T10:44:56.075Z,22.60
2022-10-18T10:47:44.324Z,22.90
2022-10-18T10:50:31.832Z,23.10
2022-10-18T10:53:33.459Z,23.10
2022-10-18T10:56:25.090Z,23.20
2022-10-18T10:59:16.549Z,23.00
2022-10-18T11:02:23.034Z,22.90
2022-10-18T11:05:26.402Z,23.10
2022-10-18T11:08:14.205Z,23.20
2022-10-18T11:11:08.313Z,23.10
2022-10-18T11:14:13.668Z,22.70
2022-10-18T11:17:14.813Z,22.30
2022-10-18T11:20:17.919Z,22.10
2022-10-18T11:23:09.104Z,21.90
2022-10-18T11:26:08.510Z,22.00
2022-10-18T11:29:11.614Z,22.50
2022-10-18T11:32:10.404Z,22.70
2022-10-18T11:35:18.150Z,23.00
2022-10-18T11:38:26.260Z,22.90
2022-10-18T11:41:30.997Z,22.90
2022-10-18T11:44:27.669Z,22.80
2022-10-18T11:47:19.780Z,22.70
2022-10-18T11:50:17.570Z,22.50
2022-10-18T11:53:16.252Z,22.40
2022-10-18T11:56:11.631Z,22.60
2022-10-18T11:59:18.432Z,22.40
2022-10-18T12:02:32.312Z,22.40
2022-10-18T12:05:23.641Z,22.90
2022-10-18T12:08:16.533Z,23.10
2022-10-18T12:11:10.202Z,23.40
2022-10-18T12:13:59.560Z,23.50
2022-10-18T12:16:51.427Z,23.60
2022-10-18T12:19:42.736Z,23.40
2022-10-18T12:22:36.234Z,23.60
2022-10-18T12:25:24.833Z,23.60
2022-10-18T12:28:18.626Z,23.60
2022-10-18T12:31:13.722Z,23.60
2022-10-18T12:34:03.888Z,23.40
2022-10-18T12:37:05.153Z,23.40
2022-10-18T12:40:13.150Z,23.40
2022-10-18T12:43:09.743Z,22.90
2022-10-18T12:45:58.755Z,23.00
2022-10-18T12:48:48.788Z,23.10
2022-10-18T12:51:36.032Z,23.10
2022-10-18T12:54:27.616Z,22.90
2022-10-18T12:57:24.265Z,22.60
2022-10-18T13:00:53.780Z,22.40
2022-10-18T13:03:55.154Z,22.20
2022-10-18T13:07:17.670Z,21.80
2022-10-18T13:10:40.722Z,21.70
2022-10-18T13:13:53.695Z,21.60
2022-10-18T13:16:47.409Z,21.60
2022-10-18T13:19:40.215Z,21.50
2022-10-18T13:22:49.243Z,21.60
2022-10-18T13:25:46.207Z,21.50
2022-10-18T13:28:41.545Z,21.60
2022-10-18T13:31:36.377Z,21.70
2022-10-18T13:34:34.780Z,21.70
2022-10-18T13:37:25.266Z,21.60
2022-10-18T13:40:17.083Z,21.60
2022-10-18T13:43:56.615Z,21.50
2022-10-18T13:47:12.688Z,21.40
2022-10-18T13:50:35.782Z,21.40
2022-10-18T13:53:37.646Z,21.30
2022-10-18T13:56:47.209Z,21.30
2022-10-18T13:59:52.210Z,21.30
2022-10-18T14:03:09.228Z,21.20
2022-10-18T14:06:09.361Z,21.20
2022-10-18T14:09:09.422Z,21.10
2022-10-18T14:12:17.960Z,21.10
2022-10-18T14:15:11.134Z,21.10
2022-10-18T14:18:02.831Z,21.00
2022-10-18T14:21:12.373Z,21.10
2022-10-18T14:24:01.342Z,21.00
2022-10-18T14:26:48.182Z,21.00
2022-10-18T14:29:34.519Z,21.00
2022-10-18T14:32:27.501Z,21.00
2022-10-18T14:35:35.057Z,21.10
2022-10-18T14:38:23.006Z,21.00
2022-10-18T14:41:17.440Z,20.90
2022-10-18T14:44:20.352Z,20.90
2022-10-18T14:47:17.781Z,20.90
2022-10-18T14:50:04.596Z,20.90
2022-10-18T14:52:52.000Z,20.90
2022-10-18T14:55:39.524Z,20.90
2022-10-18T14:58:28.100Z,20.80
2022-10-18T15:01:18.690Z,20.70
2022-10-18T15:04:10.621Z,20.60
2022-10-18T15:06:57.865Z,20.70
2022-10-18T15:09:45.617Z,20.70
2022-10-18T15:12:37.004Z,20.70
2022-10-18T15:15:35.384Z,20.60
2022-10-18T15:18:24.551Z,20.60
2022-10-18T15:21:22.430Z,20.50
2022-10-18T15:24:28.789Z,20.50
2022-10-18T15:27:21.907Z,20.50
2022-10-18T15:30:11.075Z,20.50
2022-10-18T15:33:01.193Z,20.50
2022-10-18T15:35:47.789Z,20.50
2022-10-18T15:38:36.600Z,20.40
2022-10-18T15:41:41.261Z,20.40
2022-10-18T15:44:32.029Z,20.40
2022-10-18T15:47:22.097Z,20.40
2022-10-18T15:50:37.487Z,20.30
2022-10-18T15:53:31.754Z,20.30
2022-10-18T15:56:31.028Z,20.30
2022-10-18T15:59:24.498Z,20.20
2022-10-18T16:02:14.254Z,20.20
2022-10-18T16:05:01.330Z,20.20
2022-10-18T16:07:52.552Z,20.20
2022-10-18T16:10:39.133Z,20.00
2022-10-18T16:13:26.193Z,19.90
2022-10-18T16:16:16.013Z,19.80
2022-10-18T16:19:03.218Z,19.90
2022-10-18T16:21:51.129Z,19.90
2022-10-18T16:24:39.108Z,19.90
2022-10-18T16:27:26.550Z,19.90
2022-10-18T16:30:16.894Z,19.90
2022-10-18T16:33:03.214Z,19.80
2022-10-18T16:35:50.019Z,19.90
2022-10-18T16:38:38.424Z,19.80
2022-10-18T16:41:26.450Z,19.70
2022-10-18T16:44:13.258Z,19.60
2022-10-18T16:46:59.734Z,19.60
2022-10-18T16:49:46.794Z,19.60
2022-10-18T16:52:33.179Z,19.70
2022-10-18T16:55:24.804Z,19.70
2022-10-18T16:58:17.369Z,19.70
2022-10-18T17:01:06.766Z,19.60
2022-10-18T17:03:55.429Z,19.60
2022-10-18T17:06:41.892Z,19.60
2022-10-18T17:09:28.502Z,19.60
2022-10-18T17:12:14.869Z,19.50
2022-10-18T17:15:02.997Z,19.50
2022-10-18T17:17:49.938Z,19.40
2022-10-18T17:20:36.628Z,19.40
2022-10-18T17:23:23.959Z,19.40
2022-10-18T17:26:27.939Z,19.20
2022-10-18T17:29:15.894Z,19.10
2022-10-18T17:32:04.170Z,19.00
2022-10-18T17:34:50.881Z,19.00
2022-10-18T17:37:39.580Z,19.00
2022-10-18T17:40:28.309Z,18.90
2022-10-18T17:43:14.988Z,18.80
2022-10-18T17:46:01.350Z,18.70
2022-10-18T17:48:48.921Z,18.70
2022-10-18T17:51:35.614Z,18.70
2022-10-18T17:54:22.238Z,18.70
2022-10-18T17:57:08.777Z,18.80
2022-10-18T17:59:56.320Z,18.90
2022-10-18T18:02:43.453Z,18.90
2022-10-18T18:05:34.089Z,19.00
2022-10-18T18:08:20.437Z,18.90
2022-10-18T18:11:07.456Z,18.90
2022-10-18T18:13:56.346Z,18.90
2022-10-18T18:16:44.743Z,18.70
2022-10-18T18:19:31.818Z,18.70
2022-10-18T18:22:19.796Z,18.70
2022-10-18T18:25:07.187Z,18.50
2022-10-18T18:27:55.000Z,18.20
2022-10-18T18:30:41.301Z,18.00
2022-10-18T18:33:27.695Z,18.00
2022-10-18T18:36:14.101Z,17.90
2022-10-18T18:39:02.464Z,18.00
2022-10-18T18:41:50.389Z,18.00
2022-10-18T18:44:36.713Z,18.20
2022-10-18T18:47:23.425Z,18.20
2022-10-18T18:50:10.710Z,18.20
2022-10-18T18:52:58.897Z,18.00
2022-10-18T18:55:48.351Z,17.90
2022-10-18T18:58:36.749Z,18.00
2022-10-18T19:01:25.749Z,18.00
2022-10-18T19:04:12.799Z,18.10
2022-10-18T19:06:59.327Z,18.10
2022-10-18T19:09:46.926Z,18.20
2022-10-18T19:12:35.770Z,18.10
2022-10-18T19:15:22.155Z,18.20
2022-10-18T19:18:08.556Z,18.20
2022-10-18T19:20:55.007Z,18.20
2022-10-18T19:23:41.487Z,18.10
2022-10-18T19:26:32.261Z,18.00
2022-10-18T19:29:22.504Z,18.00
2022-10-18T19:32:12.011Z,17.90
2022-10-18T19:34:58.996Z,17.70
2022-10-18T19:37:45.491Z,17.60
2022-10-18T19:40:31.813Z,17.50
2022-10-18T19:43:18.721Z,17.60
2022-10-18T19:46:06.977Z,17.50
2022-10-18T19:48:54.206Z,17.50
2022-10-18T19:51:40.962Z,17.60
2022-10-18T19:54:27.674Z,17.70
2022-10-18T19:57:14.332Z,17.80
2022-10-18T20:00:01.016Z,17.60
2022-10-18T20:02:59.279Z,17.60
2022-10-18T20:05:45.830Z,17.50
2022-10-18T20:08:33.695Z,17.50
2022-10-18T20:11:22.560Z,17.60
2022-10-18T20:14:10.771Z,17.50
2022-10-18T20:16:57.165Z,17.60
2022-10-18T20:19:44.827Z,17.70
2022-10-18T20:22:33.072Z,17.70
2022-10-18T20:25:19.855Z,17.80
2022-10-18T20:28:07.689Z,17.80
2022-10-18T20:31:02.090Z,17.60
2022-10-18T20:33:54.022Z,17.60
2022-10-18T20:36:42.857Z,17.60
2022-10-18T20:39:29.584Z,17.60
2022-10-18T20:42:15.929Z,17.60
2022-10-18T20:47:53.841Z,17.60
2022-10-18T20:50:43.553Z,17.50
2022-10-18T20:53:31.323Z,17.30
2022-10-18T20:56:20.091Z,17.20
2022-10-18T20:59:09.715Z,17.20
2022-10-18T21:01:56.771Z,17.20
2022-10-18T21:04:43.133Z,17.30
2022-10-18T21:07:30.936Z,17.30
2022-10-18T21:10:19.569Z,17.20
2022-10-18T21:13:06.246Z,17.10
2022-10-18T21:15:55.935Z,17.10
2022-10-18T21:18:42.585Z,17.20
2022-10-18T21:21:29.004Z,17.20
2022-10-18T21:24:15.523Z,17.20
2022-10-18T21:27:03.452Z,17.10
2022-10-18T21:29:49.998Z,17.00
2022-10-18T21:32:36.736Z,16.80
2022-10-18T21:35:23.407Z,16.90
2022-10-18T21:38:09.888Z,16.80
2022-10-18T21:40:56.233Z,16.70
2022-10-18T21:43:45.774Z,16.60
2022-10-18T21:46:32.241Z,16.50
2022-10-18T21:49:19.396Z,16.30
2022-10-18T21:52:06.433Z,16.20
2022-10-18T21:54:53.502Z,15.90
2022-10-18T21:57:40.189Z,15.90
2022-10-18T22:00:27.961Z,15.80
2022-10-18T22:03:14.829Z,16.00
2022-10-18T22:06:02.746Z,16.10
2022-10-18T22:08:51.442Z,16.20
2022-10-18T22:11:40.808Z,16.30
2022-10-18T22:14:27.429Z,16.30
2022-10-18T22:17:15.123Z,16.40
2022-10-18T22:20:01.476Z,16.20
2022-10-18T22:22:47.911Z,16.20
2022-10-18T22:25:36.256Z,16.20
2022-10-18T22:28:22.713Z,16.20
2022-10-18T22:31:15.604Z,16.00
2022-10-18T22:34:05.738Z,15.90
2022-10-18T22:36:52.313Z,15.90
2022-10-18T22:39:39.003Z,15.90
2022-10-18T22:42:25.391Z,15.80
2022-10-18T22:45:12.239Z,15.80
2022-10-18T22:47:59.358Z,15.80
2022-10-18T22:50:47.210Z,15.90
2022-10-18T22:53:34.324Z,15.70
2022-10-18T22:56:22.218Z,15.60
2022-10-18T22:59:08.790Z,15.60
2022-10-18T23:01:55.139Z,15.40
2022-10-18T23:04:41.391Z,15.20
2022-10-18T23:07:29.120Z,15.30
2022-10-18T23:10:16.171Z,15.30
2022-10-18T23:13:02.615Z,15.40
2022-10-18T23:15:49.079Z,15.50
2022-10-18T23:18:35.812Z,15.60
2022-10-18T23:21:27.986Z,15.60
2022-10-18T23:24:15.929Z,15.70
2022-10-18T23:27:02.278Z,15.60
2022-10-18T23:29:48.741Z,15.50
2022-10-18T23:32:35.425Z,15.40
2022-10-18T23:35:22.236Z,15.40
2022-10-18T23:38:08.674Z,15.40
2022-10-18T23:40:56.372Z,15.40
2022-10-18T23:43:43.421Z,15.40
2022-10-18T23:46:29.902Z,15.30
2022-10-18T23:49:16.318Z,15.30
2022-10-18T23:52:02.938Z,15.40
2022-10-18T23:54:49.493Z,15.30
2022-10-18T23:57:37.172Z,15.20
